Etusivu
METAR-TAF:

METAR-TAF

Lentoasemat :

Community_Airport

Owosso, Michigan, Yhdysvallat

Leveyspiiri: 42-59-34N, Pituuspiiri: 084-08-20W, korkeus merenpinnasta: 224 m

Tämänhetkinen sää

Tämä raportti tehtiin 20 minuuttia sitten, kello 15.16 UTC
Tuuli 10 kn lännestä puuskistuen 15 kn:hen, vaihdellen lännen/lounaan ja luoteen välillä
Lämpötila 10°C
Kosteus 57%
Ilmanpaine 1017 hPa
Näkyvyys: 16.1 km
Hajanaisia pilviä 3300 ft:n korkeudessa
Hajonneita pilviä 4000 ft:n korkeudessa
Hajonneita pilviä 4600 ft:n korkeudessa

METAR: KRNP 141516Z AUTO 27010G15KT 240V310 10SM SCT033 BKN040 BKN046 10/02 A3003 RMK AO2 T01000020

Aika: 11:36 (15:36 UTC)


TAF: puuttuu

Säähavainnot ja -ennusteet yli 4000 lentoasemalta (METAR- ja TAF-raportit).

Käytössä olevat sääasemat on merkitty karttaan keltaisilla ja punaisilla pisteillä.

Aseta hiiri pisteen päälle nähdäksesi sääaseman nimen.

Klikkaa sitten nähdäksesi säähavainnot ja -ennusteet.

Kartan vaihtaminen: klikkaa mustalla rastilla varustettuja vihreitä pisteitä, niin voit zoomata sisään; viivalla varustettua vihreää pistettä, niin voit zoomata ulos tai vihreitä nuolia, niin pääset viereisille kartoille.


METAR-TAF: